Aster — CURM9 — position and weather

sailwx.info

Track history (hours):
 
Tides and Currents Weather Stations Pressure Air Temp Water Temp Dewpoint Dewpoint Depression Visibility Wind Speed Wind Dir Waves Ship Positions

Aster

Last reported at 2017-Nov-28 05:29 UTC. Time now 2017-Dec-13 01:47 UTC.
Position N 37°47' W 009°07'.
Warning: this ship's position is 14 days out of date.

Length 25 m.

Type: Fishing. MMSI: 263402890.

Date/timePositionNaut miles runAvg speedWind from/ knotsBaromVisibWave heightAir tempDewpointWater temp
2017-Nov-28 05:29N 37°47' W 009°07'8 8.2
2017-Nov-28 04:30N 37°55' W 009°07'4 8.1
2017-Nov-28 04:00N 37°59' W 009°07'4 8.0
2017-Nov-28 03:30N 38°03' W 009°06'4 8.3
2017-Nov-28 03:00N 38°07' W 009°06'4 8.5
2017-Nov-28 02:30N 38°11' W 009°06'4 8.6
2017-Nov-28 02:00N 38°16' W 009°06'4 8.5
2017-Nov-28 01:30N 38°20' W 009°06'4 8.3
2017-Nov-28 01:00N 38°24' W 009°06'3 5.1
2017-Nov-28 00:30N 38°26' W 009°07'0 0.0
2017-Nov-28 00:00N 38°26' W 009°07'0 0.0
2017-Nov-27 23:30N 38°26' W 009°07'0 0.0
2017-Nov-27 23:00N 38°26' W 009°07'0 0.0
2017-Nov-27 22:30N 38°26' W 009°07'0 0.0
2017-Nov-27 22:00N 38°26' W 009°07'0 0.0
2017-Nov-27 21:30N 38°26' W 009°07'0 0.0
2017-Nov-27 20:23N 38°26' W 009°07'0 0.0
2017-Nov-27 20:00N 38°26' W 009°07'0 0.0
2017-Nov-27 19:30N 38°26' W 009°07'0 0.0
2017-Nov-27 15:25N 38°26' W 009°07'11 8.4
2017-Nov-27 14:07N 38°16' W 009°06'1 8.4
2017-Nov-27 13:59N 38°14' W 009°06'4 8.1
2017-Nov-27 13:30N 38°11' W 009°04'18 5.6
2017-Nov-27 10:18N 37°53' W 008°60'1 1.8
2017-Nov-27 10:00N 37°53' W 009°01'1 1.2
2017-Nov-27 09:30N 37°53' W 009°01'1 0.7
2017-Nov-27 07:56N 37°53' W 009°00'5 0.1
2017-Nov-25 14:33N 37°49' W 008°56'1 3.6
2017-Nov-25 14:24N 37°50' W 008°56'1 3.8
2017-Nov-25 14:00N 37°51' W 008°57'2 3.7
2017-Nov-25 13:30N 37°52' W 008°59'2 3.7
2017-Nov-25 13:00N 37°54' W 009°00'5 1.0
2017-Nov-25 08:16N 37°50' W 008°56'1 3.5
2017-Nov-25 08:00N 37°50' W 008°57'2 3.6
2017-Nov-25 07:30N 37°52' W 008°59'2 3.6
2017-Nov-25 07:00N 37°53' W 009°00'1 1.5
2017-Nov-25 06:29N 37°54' W 009°00'15 0.7
2017-Nov-24 09:35N 37°39' W 009°03'1 3.3
2017-Nov-24 09:20N 37°40' W 009°03'1 3.3
2017-Nov-24 09:00N 37°41' W 009°03'3 3.2
2017-Nov-24 07:56N 37°45' W 009°04'1 3.0
2017-Nov-24 07:30N 37°46' W 009°04'2 3.0
2017-Nov-24 07:00N 37°47' W 009°04'1 1.1
2017-Nov-24 06:31N 37°48' W 009°04'2 4.9
2017-Nov-24 06:00N 37°50' W 009°02'3 6.8
2017-Nov-24 05:31N 37°52' W 008°58'3 6.7
2017-Nov-24 05:00N 37°54' W 008°55'3 6.5
2017-Nov-24 04:31N 37°56' W 008°53'1 1.5
2017-Nov-24 04:00N 37°57' W 008°52'0 0.0
2017-Nov-24 03:31N 37°57' W 008°52'0 0.0
2017-Nov-24 03:01N 37°57' W 008°52'0 0.0
2017-Nov-24 02:31N 37°57' W 008°52'0 0.0
2017-Nov-24 02:01N 37°57' W 008°52'0 0.0
2017-Nov-24 01:31N 37°57' W 008°52'0 0.0
2017-Nov-24 01:01N 37°57' W 008°52'0 0.0
2017-Nov-24 00:31N 37°57' W 008°52'0 0.0
2017-Nov-24 00:01N 37°57' W 008°52'0 0.0
2017-Nov-23 23:31N 37°57' W 008°52'2 3.8
2017-Nov-23 23:01N 37°56' W 008°54'4 7.0
2017-Nov-23 22:31N 37°57' W 008°58'4 7.1
2017-Nov-23 22:01N 37°58' W 009°02'0 1.0
2017-Nov-23 21:31N 37°58' W 009°03'1 3.0
2017-Nov-23 21:01N 37°56' W 009°03'2 3.0
2017-Nov-23 20:30N 37°55' W 009°03'2 3.1
2017-Nov-23 20:01N 37°53' W 009°03'2 3.1
2017-Nov-23 19:31N 37°52' W 009°02'2 3.2
2017-Nov-23 19:01N 37°50' W 009°02'2 3.2
2017-Nov-23 18:30N 37°49' W 009°02'2 4.0
2017-Nov-23 18:00N 37°47' W 009°04'1 2.0
2017-Nov-23 17:30N 37°46' W 009°04'2 3.2
2017-Nov-23 17:01N 37°45' W 009°03'2 3.0
2017-Nov-23 16:31N 37°43' W 009°03'2 3.2
2017-Nov-23 16:01N 37°42' W 009°03'2 3.2
2017-Nov-23 15:30N 37°40' W 009°02'2 3.3
2017-Nov-23 15:00N 37°39' W 009°02'5 0.6
2017-Nov-23 06:43N 37°40' W 008°57'  
Track history (hours):
 
Tides and Currents Weather Stations Pressure Air Temp Water Temp Dewpoint Dewpoint Depression Visibility Wind Speed Wind Dir Waves Ship Positions

Aster

Last reported at 2017-Nov-28 05:29 UTC. Time now 2017-Dec-13 01:47 UTC.
Position N 37°47' W 009°07'.
Warning: this ship's position is 14 days out of date.

Length 25 m.

Type: Fishing. MMSI: 263402890.

Date/timePositionNaut miles runAvg speedWind from/ knotsBaromVisibWave heightAir tempDewpointWater temp
2017-Nov-28 05:29N 37°47' W 009°07'8 8.2
2017-Nov-28 04:30N 37°55' W 009°07'4 8.1
2017-Nov-28 04:00N 37°59' W 009°07'4 8.0
2017-Nov-28 03:30N 38°03' W 009°06'4 8.3
2017-Nov-28 03:00N 38°07' W 009°06'4 8.5
2017-Nov-28 02:30N 38°11' W 009°06'4 8.6
2017-Nov-28 02:00N 38°16' W 009°06'4 8.5
2017-Nov-28 01:30N 38°20' W 009°06'4 8.3
2017-Nov-28 01:00N 38°24' W 009°06'3 5.1
2017-Nov-28 00:30N 38°26' W 009°07'0 0.0
2017-Nov-28 00:00N 38°26' W 009°07'0 0.0
2017-Nov-27 23:30N 38°26' W 009°07'0 0.0
2017-Nov-27 23:00N 38°26' W 009°07'0 0.0
2017-Nov-27 22:30N 38°26' W 009°07'0 0.0
2017-Nov-27 22:00N 38°26' W 009°07'0 0.0
2017-Nov-27 21:30N 38°26' W 009°07'0 0.0
2017-Nov-27 20:23N 38°26' W 009°07'0 0.0
2017-Nov-27 20:00N 38°26' W 009°07'0 0.0
2017-Nov-27 19:30N 38°26' W 009°07'0 0.0
2017-Nov-27 15:25N 38°26' W 009°07'11 8.4
2017-Nov-27 14:07N 38°16' W 009°06'1 8.4
2017-Nov-27 13:59N 38°14' W 009°06'4 8.1
2017-Nov-27 13:30N 38°11' W 009°04'18 5.6
2017-Nov-27 10:18N 37°53' W 008°60'1 1.8
2017-Nov-27 10:00N 37°53' W 009°01'1 1.2
2017-Nov-27 09:30N 37°53' W 009°01'1 0.7
2017-Nov-27 07:56N 37°53' W 009°00'5 0.1
2017-Nov-25 14:33N 37°49' W 008°56'1 3.6
2017-Nov-25 14:24N 37°50' W 008°56'1 3.8
2017-Nov-25 14:00N 37°51' W 008°57'2 3.7
2017-Nov-25 13:30N 37°52' W 008°59'2 3.7
2017-Nov-25 13:00N 37°54' W 009°00'5 1.0
2017-Nov-25 08:16N 37°50' W 008°56'1 3.5
2017-Nov-25 08:00N 37°50' W 008°57'2 3.6
2017-Nov-25 07:30N 37°52' W 008°59'2 3.6
2017-Nov-25 07:00N 37°53' W 009°00'1 1.5
2017-Nov-25 06:29N 37°54' W 009°00'15 0.7
2017-Nov-24 09:35N 37°39' W 009°03'1 3.3
2017-Nov-24 09:20N 37°40' W 009°03'1 3.3
2017-Nov-24 09:00N 37°41' W 009°03'3 3.2
2017-Nov-24 07:56N 37°45' W 009°04'1 3.0
2017-Nov-24 07:30N 37°46' W 009°04'2 3.0
2017-Nov-24 07:00N 37°47' W 009°04'1 1.1
2017-Nov-24 06:31N 37°48' W 009°04'2 4.9
2017-Nov-24 06:00N 37°50' W 009°02'3 6.8
2017-Nov-24 05:31N 37°52' W 008°58'3 6.7
2017-Nov-24 05:00N 37°54' W 008°55'3 6.5
2017-Nov-24 04:31N 37°56' W 008°53'1 1.5
2017-Nov-24 04:00N 37°57' W 008°52'0 0.0
2017-Nov-24 03:31N 37°57' W 008°52'0 0.0
2017-Nov-24 03:01N 37°57' W 008°52'0 0.0
2017-Nov-24 02:31N 37°57' W 008°52'0 0.0
2017-Nov-24 02:01N 37°57' W 008°52'0 0.0
2017-Nov-24 01:31N 37°57' W 008°52'0 0.0
2017-Nov-24 01:01N 37°57' W 008°52'0 0.0
2017-Nov-24 00:31N 37°57' W 008°52'0 0.0
2017-Nov-24 00:01N 37°57' W 008°52'0 0.0
2017-Nov-23 23:31N 37°57' W 008°52'2 3.8
2017-Nov-23 23:01N 37°56' W 008°54'4 7.0
2017-Nov-23 22:31N 37°57' W 008°58'4 7.1
2017-Nov-23 22:01N 37°58' W 009°02'0 1.0
2017-Nov-23 21:31N 37°58' W 009°03'1 3.0
2017-Nov-23 21:01N 37°56' W 009°03'2 3.0
2017-Nov-23 20:30N 37°55' W 009°03'2 3.1
2017-Nov-23 20:01N 37°53' W 009°03'2 3.1
2017-Nov-23 19:31N 37°52' W 009°02'2 3.2
2017-Nov-23 19:01N 37°50' W 009°02'2 3.2
2017-Nov-23 18:30N 37°49' W 009°02'2 4.0
2017-Nov-23 18:00N 37°47' W 009°04'1 2.0
2017-Nov-23 17:30N 37°46' W 009°04'2 3.2
2017-Nov-23 17:01N 37°45' W 009°03'2 3.0
2017-Nov-23 16:31N 37°43' W 009°03'2 3.2
2017-Nov-23 16:01N 37°42' W 009°03'2 3.2
2017-Nov-23 15:30N 37°40' W 009°02'2 3.3
2017-Nov-23 15:00N 37°39' W 009°02'5 0.6
2017-Nov-23 06:43N 37°40' W 008°57'  

Dump ship's entire track history